sensor_id;sensor_type;location;lat;lon;timestamp;P1;durP1;ratioP1;P2;durP2;ratioP2
13102;SDS011;52970;46.752;17.108;2023-12-20T00:01:18;65.10;;;25.20;;
13102;SDS011;52970;46.752;17.108;2023-12-20T00:03:43;39.47;;;23.00;;
13102;SDS011;52970;46.752;17.108;2023-12-20T00:06:09;47.70;;;22.53;;
13102;SDS011;52970;46.752;17.108;2023-12-20T00:08:34;40.20;;;23.47;;
13102;SDS011;52970;46.752;17.108;2023-12-20T00:10:59;45.10;;;25.10;;
13102;SDS011;52970;46.752;17.108;2023-12-20T00:13:25;31.43;;;22.87;;
13102;SDS011;52970;46.752;17.108;2023-12-20T00:15:50;30.93;;;21.60;;
13102;SDS011;52970;46.752;17.108;2023-12-20T00:18:15;40.83;;;24.57;;
13102;SDS011;52970;46.752;17.108;2023-12-20T00:20:40;36.87;;;22.87;;
13102;SDS011;52970;46.752;17.108;2023-12-20T00:23:06;46.50;;;23.30;;
13102;SDS011;52970;46.752;17.108;2023-12-20T00:25:33;38.77;;;22.73;;
13102;SDS011;52970;46.752;17.108;2023-12-20T00:27:58;40.93;;;24.43;;
13102;SDS011;52970;46.752;17.108;2023-12-20T00:30:23;34.70;;;22.67;;
13102;SDS011;52970;46.752;17.108;2023-12-20T00:32:49;47.57;;;24.37;;
13102;SDS011;52970;46.752;17.108;2023-12-20T00:35:14;33.63;;;22.47;;
13102;SDS011;52970;46.752;17.108;2023-12-20T00:37:39;58.07;;;23.70;;
13102;SDS011;52970;46.752;17.108;2023-12-20T00:40:05;41.90;;;22.10;;
13102;SDS011;52970;46.752;17.108;2023-12-20T00:42:30;37.77;;;23.37;;
13102;SDS011;52970;46.752;17.108;2023-12-20T00:44:55;67.43;;;22.33;;
13102;SDS011;52970;46.752;17.108;2023-12-20T00:47:21;112.20;;;24.57;;
13102;SDS011;52970;46.752;17.108;2023-12-20T00:49:47;47.57;;;23.37;;
13102;SDS011;52970;46.752;17.108;2023-12-20T00:52:12;63.10;;;23.67;;
13102;SDS011;52970;46.752;17.108;2023-12-20T00:54:37;77.60;;;22.73;;
13102;SDS011;52970;46.752;17.108;2023-12-20T00:57:02;95.00;;;26.07;;
13102;SDS011;52970;46.752;17.108;2023-12-20T00:59:28;75.53;;;23.37;;
13102;SDS011;52970;46.752;17.108;2023-12-20T01:01:53;71.70;;;23.77;;
13102;SDS011;52970;46.752;17.108;2023-12-20T01:04:18;43.37;;;24.20;;
13102;SDS011;52970;46.752;17.108;2023-12-20T01:06:43;39.87;;;23.47;;
13102;SDS011;52970;46.752;17.108;2023-12-20T01:09:09;46.70;;;22.33;;
13102;SDS011;52970;46.752;17.108;2023-12-20T01:11:34;65.90;;;24.23;;
13102;SDS011;52970;46.752;17.108;2023-12-20T01:13:59;96.37;;;25.50;;
13102;SDS011;52970;46.752;17.108;2023-12-20T01:16:25;33.93;;;23.63;;
13102;SDS011;52970;46.752;17.108;2023-12-20T01:18:50;66.20;;;23.57;;
13102;SDS011;52970;46.752;17.108;2023-12-20T01:21:16;40.23;;;24.30;;
13102;SDS011;52970;46.752;17.108;2023-12-20T01:23:41;35.23;;;23.17;;
13102;SDS011;52970;46.752;17.108;2023-12-20T01:26:06;34.87;;;22.93;;
13102;SDS011;52970;46.752;17.108;2023-12-20T01:28:32;32.13;;;22.60;;
13102;SDS011;52970;46.752;17.108;2023-12-20T01:30:57;37.37;;;22.93;;
13102;SDS011;52970;46.752;17.108;2023-12-20T01:33:23;41.23;;;24.13;;
13102;SDS011;52970;46.752;17.108;2023-12-20T01:35:48;36.27;;;24.17;;
13102;SDS011;52970;46.752;17.108;2023-12-20T01:38:13;43.50;;;24.27;;
13102;SDS011;52970;46.752;17.108;2023-12-20T01:40:38;51.27;;;23.37;;
13102;SDS011;52970;46.752;17.108;2023-12-20T01:43:08;40.13;;;23.73;;
13102;SDS011;52970;46.752;17.108;2023-12-20T01:45:33;38.40;;;23.87;;
13102;SDS011;52970;46.752;17.108;2023-12-20T01:47:58;74.17;;;24.47;;
13102;SDS011;52970;46.752;17.108;2023-12-20T01:50:24;37.23;;;23.10;;
13102;SDS011;52970;46.752;17.108;2023-12-20T01:52:50;68.27;;;24.83;;
13102;SDS011;52970;46.752;17.108;2023-12-20T01:55:18;36.63;;;23.03;;
13102;SDS011;52970;46.752;17.108;2023-12-20T01:57:43;41.17;;;24.13;;
13102;SDS011;52970;46.752;17.108;2023-12-20T02:00:09;36.30;;;23.10;;
13102;SDS011;52970;46.752;17.108;2023-12-20T02:02:36;35.00;;;22.30;;
13102;SDS011;52970;46.752;17.108;2023-12-20T02:05:02;39.47;;;23.87;;
13102;SDS011;52970;46.752;17.108;2023-12-20T02:07:28;40.70;;;25.07;;
13102;SDS011;52970;46.752;17.108;2023-12-20T02:09:54;42.13;;;24.87;;
13102;SDS011;52970;46.752;17.108;2023-12-20T02:12:20;44.07;;;24.03;;
13102;SDS011;52970;46.752;17.108;2023-12-20T02:14:45;45.33;;;24.63;;
13102;SDS011;52970;46.752;17.108;2023-12-20T02:17:10;41.73;;;23.93;;
13102;SDS011;52970;46.752;17.108;2023-12-20T02:19:35;41.47;;;24.30;;
13102;SDS011;52970;46.752;17.108;2023-12-20T02:22:08;35.83;;;22.00;;
13102;SDS011;52970;46.752;17.108;2023-12-20T02:24:33;44.10;;;24.10;;
13102;SDS011;52970;46.752;17.108;2023-12-20T02:26:59;38.07;;;22.50;;
13102;SDS011;52970;46.752;17.108;2023-12-20T02:29:24;40.57;;;22.13;;
13102;SDS011;52970;46.752;17.108;2023-12-20T02:31:49;42.43;;;22.27;;
13102;SDS011;52970;46.752;17.108;2023-12-20T02:34:14;36.70;;;21.47;;
13102;SDS011;52970;46.752;17.108;2023-12-20T02:36:40;43.83;;;20.70;;
13102;SDS011;52970;46.752;17.108;2023-12-20T02:39:05;32.17;;;20.83;;
13102;SDS011;52970;46.752;17.108;2023-12-20T02:41:30;69.40;;;19.83;;
13102;SDS011;52970;46.752;17.108;2023-12-20T02:43:55;29.37;;;19.87;;
13102;SDS011;52970;46.752;17.108;2023-12-20T02:46:21;33.23;;;19.50;;
13102;SDS011;52970;46.752;17.108;2023-12-20T02:48:46;34.97;;;18.80;;
13102;SDS011;52970;46.752;17.108;2023-12-20T02:51:12;35.97;;;19.60;;
13102;SDS011;52970;46.752;17.108;2023-12-20T02:53:37;32.10;;;19.30;;
13102;SDS011;52970;46.752;17.108;2023-12-20T02:56:02;49.83;;;19.70;;
13102;SDS011;52970;46.752;17.108;2023-12-20T02:58:28;31.63;;;19.80;;
13102;SDS011;52970;46.752;17.108;2023-12-20T03:00:53;30.13;;;19.03;;
13102;SDS011;52970;46.752;17.108;2023-12-20T03:03:19;31.27;;;18.23;;
13102;SDS011;52970;46.752;17.108;2023-12-20T03:05:44;37.73;;;18.97;;
13102;SDS011;52970;46.752;17.108;2023-12-20T03:08:10;31.80;;;19.43;;
13102;SDS011;52970;46.752;17.108;2023-12-20T03:10:36;33.23;;;20.03;;
13102;SDS011;52970;46.752;17.108;2023-12-20T03:13:01;38.30;;;20.90;;
13102;SDS011;52970;46.752;17.108;2023-12-20T03:15:26;28.57;;;18.17;;
13102;SDS011;52970;46.752;17.108;2023-12-20T03:17:51;28.37;;;18.33;;
13102;SDS011;52970;46.752;17.108;2023-12-20T03:20:17;34.87;;;20.90;;
13102;SDS011;52970;46.752;17.108;2023-12-20T03:22:43;41.20;;;20.70;;
13102;SDS011;52970;46.752;17.108;2023-12-20T03:25:09;34.63;;;19.83;;
13102;SDS011;52970;46.752;17.108;2023-12-20T03:27:36;36.50;;;20.30;;
13102;SDS011;52970;46.752;17.108;2023-12-20T03:30:01;37.03;;;20.97;;
13102;SDS011;52970;46.752;17.108;2023-12-20T03:32:27;32.90;;;19.77;;
13102;SDS011;52970;46.752;17.108;2023-12-20T03:34:52;47.40;;;20.33;;
13102;SDS011;52970;46.752;17.108;2023-12-20T03:37:17;34.53;;;19.80;;
13102;SDS011;52970;46.752;17.108;2023-12-20T03:39:42;36.73;;;20.30;;
13102;SDS011;52970;46.752;17.108;2023-12-20T03:42:07;47.63;;;20.57;;
13102;SDS011;52970;46.752;17.108;2023-12-20T03:44:33;38.40;;;19.67;;
13102;SDS011;52970;46.752;17.108;2023-12-20T03:46:58;35.63;;;21.37;;
13102;SDS011;52970;46.752;17.108;2023-12-20T03:49:23;53.60;;;20.17;;
13102;SDS011;52970;46.752;17.108;2023-12-20T03:51:48;42.83;;;20.77;;
13102;SDS011;52970;46.752;17.108;2023-12-20T03:54:13;31.87;;;18.57;;
13102;SDS011;52970;46.752;17.108;2023-12-20T03:56:39;34.40;;;20.13;;
13102;SDS011;52970;46.752;17.108;2023-12-20T03:59:04;31.73;;;21.00;;
13102;SDS011;52970;46.752;17.108;2023-12-20T04:01:29;36.67;;;20.83;;
13102;SDS011;52970;46.752;17.108;2023-12-20T04:03:54;38.30;;;21.17;;
13102;SDS011;52970;46.752;17.108;2023-12-20T04:06:19;36.37;;;21.53;;
13102;SDS011;52970;46.752;17.108;2023-12-20T04:08:45;36.97;;;20.83;;
13102;SDS011;52970;46.752;17.108;2023-12-20T04:11:10;32.37;;;20.23;;
13102;SDS011;52970;46.752;17.108;2023-12-20T04:13:35;32.33;;;20.30;;
13102;SDS011;52970;46.752;17.108;2023-12-20T04:16:01;33.20;;;19.93;;
13102;SDS011;52970;46.752;17.108;2023-12-20T04:18:26;32.90;;;21.33;;
13102;SDS011;52970;46.752;17.108;2023-12-20T04:20:53;38.73;;;20.67;;
13102;SDS011;52970;46.752;17.108;2023-12-20T04:23:18;33.27;;;20.03;;
13102;SDS011;52970;46.752;17.108;2023-12-20T04:25:44;30.00;;;19.37;;
13102;SDS011;52970;46.752;17.108;2023-12-20T04:28:09;37.93;;;21.80;;
13102;SDS011;52970;46.752;17.108;2023-12-20T04:30:35;32.13;;;20.30;;
13102;SDS011;52970;46.752;17.108;2023-12-20T04:33:00;34.10;;;20.53;;
13102;SDS011;52970;46.752;17.108;2023-12-20T04:35:25;35.37;;;21.60;;
13102;SDS011;52970;46.752;17.108;2023-12-20T04:37:51;35.40;;;20.77;;
13102;SDS011;52970;46.752;17.108;2023-12-20T04:40:16;40.13;;;21.80;;
13102;SDS011;52970;46.752;17.108;2023-12-20T04:42:41;31.57;;;20.13;;
13102;SDS011;52970;46.752;17.108;2023-12-20T04:45:06;37.47;;;21.17;;
13102;SDS011;52970;46.752;17.108;2023-12-20T04:47:32;35.30;;;20.13;;
13102;SDS011;52970;46.752;17.108;2023-12-20T04:49:58;38.87;;;21.50;;
13102;SDS011;52970;46.752;17.108;2023-12-20T04:52:23;39.87;;;20.87;;
13102;SDS011;52970;46.752;17.108;2023-12-20T04:54:49;41.63;;;23.07;;
13102;SDS011;52970;46.752;17.108;2023-12-20T04:57:14;48.70;;;22.77;;
13102;SDS011;52970;46.752;17.108;2023-12-20T04:59:39;45.60;;;22.93;;
13102;SDS011;52970;46.752;17.108;2023-12-20T05:02:04;41.47;;;23.13;;
13102;SDS011;52970;46.752;17.108;2023-12-20T05:04:30;38.77;;;22.03;;
13102;SDS011;52970;46.752;17.108;2023-12-20T05:06:55;50.23;;;23.13;;
13102;SDS011;52970;46.752;17.108;2023-12-20T05:09:20;37.07;;;21.33;;
13102;SDS011;52970;46.752;17.108;2023-12-20T05:11:45;38.77;;;22.43;;
13102;SDS011;52970;46.752;17.108;2023-12-20T05:14:10;51.43;;;22.53;;
13102;SDS011;52970;46.752;17.108;2023-12-20T05:16:36;42.27;;;22.10;;
13102;SDS011;52970;46.752;17.108;2023-12-20T05:19:01;52.03;;;22.97;;
13102;SDS011;52970;46.752;17.108;2023-12-20T05:21:31;35.50;;;21.67;;
13102;SDS011;52970;46.752;17.108;2023-12-20T05:23:57;42.00;;;23.73;;
13102;SDS011;52970;46.752;17.108;2023-12-20T05:26:23;39.87;;;22.37;;
13102;SDS011;52970;46.752;17.108;2023-12-20T05:28:49;36.93;;;21.60;;
13102;SDS011;52970;46.752;17.108;2023-12-20T05:31:14;39.00;;;21.97;;
13102;SDS011;52970;46.752;17.108;2023-12-20T05:33:39;42.70;;;22.80;;
13102;SDS011;52970;46.752;17.108;2023-12-20T05:36:04;40.27;;;22.57;;
13102;SDS011;52970;46.752;17.108;2023-12-20T05:38:30;55.40;;;23.67;;
13102;SDS011;52970;46.752;17.108;2023-12-20T05:40:55;45.20;;;23.60;;
13102;SDS011;52970;46.752;17.108;2023-12-20T05:43:20;43.13;;;23.33;;
13102;SDS011;52970;46.752;17.108;2023-12-20T05:45:45;43.50;;;24.77;;
13102;SDS011;52970;46.752;17.108;2023-12-20T05:48:11;49.40;;;23.93;;
13102;SDS011;52970;46.752;17.108;2023-12-20T05:50:36;51.83;;;23.33;;
13102;SDS011;52970;46.752;17.108;2023-12-20T05:53:01;42.43;;;24.70;;
13102;SDS011;52970;46.752;17.108;2023-12-20T05:55:27;57.90;;;26.40;;
13102;SDS011;52970;46.752;17.108;2023-12-20T05:57:52;49.40;;;26.40;;
13102;SDS011;52970;46.752;17.108;2023-12-20T06:00:17;49.77;;;26.13;;
13102;SDS011;52970;46.752;17.108;2023-12-20T06:02:43;45.53;;;25.23;;
13102;SDS011;52970;46.752;17.108;2023-12-20T06:05:08;67.10;;;26.73;;
13102;SDS011;52970;46.752;17.108;2023-12-20T06:07:33;53.00;;;26.17;;
13102;SDS011;52970;46.752;17.108;2023-12-20T06:09:58;58.90;;;25.70;;
13102;SDS011;52970;46.752;17.108;2023-12-20T06:12:24;44.47;;;23.70;;
13102;SDS011;52970;46.752;17.108;2023-12-20T06:14:51;59.00;;;25.17;;
13102;SDS011;52970;46.752;17.108;2023-12-20T06:17:16;68.17;;;25.17;;
13102;SDS011;52970;46.752;17.108;2023-12-20T06:19:42;58.20;;;25.20;;
13102;SDS011;52970;46.752;17.108;2023-12-20T06:22:09;51.20;;;23.80;;
13102;SDS011;52970;46.752;17.108;2023-12-20T06:24:35;43.63;;;25.67;;
13102;SDS011;52970;46.752;17.108;2023-12-20T06:27:01;61.40;;;26.00;;
13102;SDS011;52970;46.752;17.108;2023-12-20T06:29:26;44.73;;;25.20;;
13102;SDS011;52970;46.752;17.108;2023-12-20T06:31:51;50.87;;;23.83;;
13102;SDS011;52970;46.752;17.108;2023-12-20T06:34:17;58.23;;;23.40;;
13102;SDS011;52970;46.752;17.108;2023-12-20T06:36:42;62.90;;;24.40;;
13102;SDS011;52970;46.752;17.108;2023-12-20T06:39:07;41.30;;;22.83;;
13102;SDS011;52970;46.752;17.108;2023-12-20T06:41:33;51.33;;;23.33;;
13102;SDS011;52970;46.752;17.108;2023-12-20T06:43:59;47.23;;;24.60;;
13102;SDS011;52970;46.752;17.108;2023-12-20T06:46:24;60.53;;;26.27;;
13102;SDS011;52970;46.752;17.108;2023-12-20T06:48:49;51.47;;;25.93;;
13102;SDS011;52970;46.752;17.108;2023-12-20T06:51:15;39.03;;;23.70;;
13102;SDS011;52970;46.752;17.108;2023-12-20T06:53:41;42.03;;;24.70;;
13102;SDS011;52970;46.752;17.108;2023-12-20T06:56:06;46.20;;;24.27;;
13102;SDS011;52970;46.752;17.108;2023-12-20T06:58:32;43.93;;;23.73;;
13102;SDS011;52970;46.752;17.108;2023-12-20T07:00:57;47.50;;;25.90;;
13102;SDS011;52970;46.752;17.108;2023-12-20T07:03:22;50.27;;;24.87;;
13102;SDS011;52970;46.752;17.108;2023-12-20T07:05:48;41.17;;;23.13;;
13102;SDS011;52970;46.752;17.108;2023-12-20T07:08:13;62.50;;;26.30;;
13102;SDS011;52970;46.752;17.108;2023-12-20T07:10:39;49.10;;;24.73;;
13102;SDS011;52970;46.752;17.108;2023-12-20T07:13:04;47.53;;;25.17;;
13102;SDS011;52970;46.752;17.108;2023-12-20T07:15:30;48.67;;;25.83;;
13102;SDS011;52970;46.752;17.108;2023-12-20T07:17:55;59.80;;;25.27;;
13102;SDS011;52970;46.752;17.108;2023-12-20T07:20:20;45.60;;;25.17;;
13102;SDS011;52970;46.752;17.108;2023-12-20T07:22:45;54.53;;;27.33;;
13102;SDS011;52970;46.752;17.108;2023-12-20T07:25:11;48.80;;;25.33;;
13102;SDS011;52970;46.752;17.108;2023-12-20T07:27:36;56.63;;;24.90;;
13102;SDS011;52970;46.752;17.108;2023-12-20T07:30:01;47.37;;;25.40;;
13102;SDS011;52970;46.752;17.108;2023-12-20T07:32:26;48.03;;;24.40;;
13102;SDS011;52970;46.752;17.108;2023-12-20T07:34:52;41.33;;;23.43;;
13102;SDS011;52970;46.752;17.108;2023-12-20T07:37:18;46.00;;;23.87;;
13102;SDS011;52970;46.752;17.108;2023-12-20T07:39:44;51.53;;;23.23;;
13102;SDS011;52970;46.752;17.108;2023-12-20T07:42:09;66.50;;;23.57;;
13102;SDS011;52970;46.752;17.108;2023-12-20T07:44:34;49.23;;;22.17;;
13102;SDS011;52970;46.752;17.108;2023-12-20T07:47:00;39.17;;;23.43;;
13102;SDS011;52970;46.752;17.108;2023-12-20T07:49:26;38.70;;;23.13;;
13102;SDS011;52970;46.752;17.108;2023-12-20T07:51:51;41.47;;;23.57;;
13102;SDS011;52970;46.752;17.108;2023-12-20T07:54:16;53.60;;;23.57;;
13102;SDS011;52970;46.752;17.108;2023-12-20T07:56:42;46.30;;;22.67;;
13102;SDS011;52970;46.752;17.108;2023-12-20T07:59:07;49.97;;;26.87;;
13102;SDS011;52970;46.752;17.108;2023-12-20T08:01:32;62.77;;;31.40;;
13102;SDS011;52970;46.752;17.108;2023-12-20T08:03:58;46.40;;;27.60;;
13102;SDS011;52970;46.752;17.108;2023-12-20T08:06:23;41.00;;;24.73;;
13102;SDS011;52970;46.752;17.108;2023-12-20T08:08:49;64.87;;;36.50;;
13102;SDS011;52970;46.752;17.108;2023-12-20T08:11:14;56.03;;;27.63;;
13102;SDS011;52970;46.752;17.108;2023-12-20T08:13:39;47.77;;;25.00;;
13102;SDS011;52970;46.752;17.108;2023-12-20T08:16:05;48.33;;;23.63;;
13102;SDS011;52970;46.752;17.108;2023-12-20T08:18:31;57.67;;;23.27;;
13102;SDS011;52970;46.752;17.108;2023-12-20T08:20:56;41.67;;;23.50;;
13102;SDS011;52970;46.752;17.108;2023-12-20T08:23:21;51.80;;;24.20;;
13102;SDS011;52970;46.752;17.108;2023-12-20T08:25:46;48.03;;;24.63;;
13102;SDS011;52970;46.752;17.108;2023-12-20T08:28:13;47.10;;;24.53;;
13102;SDS011;52970;46.752;17.108;2023-12-20T08:30:39;47.63;;;24.93;;
13102;SDS011;52970;46.752;17.108;2023-12-20T08:33:05;47.40;;;26.73;;
13102;SDS011;52970;46.752;17.108;2023-12-20T08:35:33;52.83;;;26.93;;
13102;SDS011;52970;46.752;17.108;2023-12-20T08:37:58;46.53;;;25.40;;
13102;SDS011;52970;46.752;17.108;2023-12-20T08:40:23;44.30;;;24.90;;
13102;SDS011;52970;46.752;17.108;2023-12-20T08:42:48;52.97;;;27.53;;
13102;SDS011;52970;46.752;17.108;2023-12-20T08:45:14;46.03;;;25.40;;
13102;SDS011;52970;46.752;17.108;2023-12-20T08:47:39;50.27;;;25.53;;
13102;SDS011;52970;46.752;17.108;2023-12-20T08:50:06;51.83;;;25.27;;
13102;SDS011;52970;46.752;17.108;2023-12-20T08:52:31;48.90;;;26.13;;
13102;SDS011;52970;46.752;17.108;2023-12-20T08:54:56;48.60;;;26.50;;
13102;SDS011;52970;46.752;17.108;2023-12-20T08:57:22;53.30;;;27.77;;
13102;SDS011;52970;46.752;17.108;2023-12-20T08:59:49;47.67;;;25.57;;
13102;SDS011;52970;46.752;17.108;2023-12-20T09:02:14;51.50;;;25.93;;
13102;SDS011;52970;46.752;17.108;2023-12-20T09:04:40;52.17;;;26.87;;
13102;SDS011;52970;46.752;17.108;2023-12-20T09:07:05;57.97;;;28.60;;
13102;SDS011;52970;46.752;17.108;2023-12-20T09:09:31;54.10;;;26.47;;
13102;SDS011;52970;46.752;17.108;2023-12-20T09:11:57;46.03;;;24.90;;
13102;SDS011;52970;46.752;17.108;2023-12-20T09:14:22;51.47;;;27.17;;
13102;SDS011;52970;46.752;17.108;2023-12-20T09:16:47;50.17;;;26.57;;
13102;SDS011;52970;46.752;17.108;2023-12-20T09:19:13;46.60;;;25.00;;
13102;SDS011;52970;46.752;17.108;2023-12-20T09:21:38;52.80;;;26.47;;
13102;SDS011;52970;46.752;17.108;2023-12-20T09:24:04;50.23;;;26.73;;
13102;SDS011;52970;46.752;17.108;2023-12-20T09:26:29;46.13;;;25.23;;
13102;SDS011;52970;46.752;17.108;2023-12-20T09:28:54;44.17;;;25.87;;
13102;SDS011;52970;46.752;17.108;2023-12-20T09:31:19;47.80;;;25.00;;
13102;SDS011;52970;46.752;17.108;2023-12-20T09:33:45;48.40;;;27.03;;
13102;SDS011;52970;46.752;17.108;2023-12-20T09:36:10;43.83;;;24.63;;
13102;SDS011;52970;46.752;17.108;2023-12-20T09:38:35;48.67;;;25.10;;
13102;SDS011;52970;46.752;17.108;2023-12-20T09:41:00;41.97;;;23.27;;
13102;SDS011;52970;46.752;17.108;2023-12-20T09:43:29;44.07;;;25.20;;
13102;SDS011;52970;46.752;17.108;2023-12-20T09:45:55;43.93;;;25.27;;
13102;SDS011;52970;46.752;17.108;2023-12-20T09:48:24;49.50;;;26.77;;
13102;SDS011;52970;46.752;17.108;2023-12-20T09:50:51;51.47;;;25.63;;
13102;SDS011;52970;46.752;17.108;2023-12-20T09:53:16;53.10;;;28.13;;
13102;SDS011;52970;46.752;17.108;2023-12-20T09:55:42;52.60;;;28.43;;
13102;SDS011;52970;46.752;17.108;2023-12-20T09:58:08;57.63;;;28.53;;
13102;SDS011;52970;46.752;17.108;2023-12-20T10:00:34;56.47;;;29.63;;
13102;SDS011;52970;46.752;17.108;2023-12-20T10:02:59;51.43;;;28.13;;
13102;SDS011;52970;46.752;17.108;2023-12-20T10:05:29;49.40;;;27.17;;
13102;SDS011;52970;46.752;17.108;2023-12-20T10:07:54;46.50;;;27.03;;
13102;SDS011;52970;46.752;17.108;2023-12-20T10:10:19;58.17;;;29.73;;
13102;SDS011;52970;46.752;17.108;2023-12-20T10:13:01;54.13;;;29.30;;
13102;SDS011;52970;46.752;17.108;2023-12-20T10:15:26;62.93;;;30.97;;
13102;SDS011;52970;46.752;17.108;2023-12-20T10:17:51;51.93;;;28.00;;
13102;SDS011;52970;46.752;17.108;2023-12-20T10:20:17;61.13;;;31.07;;
13102;SDS011;52970;46.752;17.108;2023-12-20T10:22:43;60.50;;;30.87;;
13102;SDS011;52970;46.752;17.108;2023-12-20T10:25:08;55.47;;;28.20;;
13102;SDS011;52970;46.752;17.108;2023-12-20T10:27:35;58.00;;;29.43;;
13102;SDS011;52970;46.752;17.108;2023-12-20T10:30:01;58.83;;;29.13;;
13102;SDS011;52970;46.752;17.108;2023-12-20T10:32:27;66.10;;;32.47;;
13102;SDS011;52970;46.752;17.108;2023-12-20T10:34:53;66.07;;;31.40;;
13102;SDS011;52970;46.752;17.108;2023-12-20T10:37:19;64.97;;;31.90;;
13102;SDS011;52970;46.752;17.108;2023-12-20T10:39:44;66.70;;;32.63;;
13102;SDS011;52970;46.752;17.108;2023-12-20T10:42:13;69.60;;;34.03;;
13102;SDS011;52970;46.752;17.108;2023-12-20T10:44:38;56.47;;;29.73;;
13102;SDS011;52970;46.752;17.108;2023-12-20T10:47:04;55.67;;;29.63;;
13102;SDS011;52970;46.752;17.108;2023-12-20T10:49:30;61.00;;;32.07;;
13102;SDS011;52970;46.752;17.108;2023-12-20T10:51:55;62.27;;;32.00;;
13102;SDS011;52970;46.752;17.108;2023-12-20T10:54:22;69.00;;;35.20;;
13102;SDS011;52970;46.752;17.108;2023-12-20T10:56:48;75.93;;;36.63;;
13102;SDS011;52970;46.752;17.108;2023-12-20T10:59:16;73.07;;;35.90;;
13102;SDS011;52970;46.752;17.108;2023-12-20T11:01:43;65.70;;;32.93;;
13102;SDS011;52970;46.752;17.108;2023-12-20T11:04:09;64.57;;;33.80;;
13102;SDS011;52970;46.752;17.108;2023-12-20T11:06:43;61.97;;;32.20;;
13102;SDS011;52970;46.752;17.108;2023-12-20T11:14:23;74.37;;;35.03;;
13102;SDS011;52970;46.752;17.108;2023-12-20T11:16:50;69.93;;;33.63;;
13102;SDS011;52970;46.752;17.108;2023-12-20T11:19:16;71.43;;;36.00;;
13102;SDS011;52970;46.752;17.108;2023-12-20T11:21:41;65.30;;;34.03;;
13102;SDS011;52970;46.752;17.108;2023-12-20T11:24:07;62.20;;;32.10;;
13102;SDS011;52970;46.752;17.108;2023-12-20T11:26:32;61.97;;;32.97;;
13102;SDS011;52970;46.752;17.108;2023-12-20T11:31:42;62.30;;;32.13;;
13102;SDS011;52970;46.752;17.108;2023-12-20T11:34:13;61.67;;;32.40;;
13102;SDS011;52970;46.752;17.108;2023-12-20T11:36:39;60.70;;;31.30;;
13102;SDS011;52970;46.752;17.108;2023-12-20T11:39:04;61.73;;;32.97;;
13102;SDS011;52970;46.752;17.108;2023-12-20T11:41:33;56.87;;;31.40;;
13102;SDS011;52970;46.752;17.108;2023-12-20T11:43:59;60.53;;;31.00;;
13102;SDS011;52970;46.752;17.108;2023-12-20T11:46:26;51.20;;;28.77;;
13102;SDS011;52970;46.752;17.108;2023-12-20T11:48:51;52.23;;;28.50;;
13102;SDS011;52970;46.752;17.108;2023-12-20T11:51:16;53.83;;;28.60;;
13102;SDS011;52970;46.752;17.108;2023-12-20T11:53:42;47.17;;;27.33;;
13102;SDS011;52970;46.752;17.108;2023-12-20T11:56:07;60.97;;;30.80;;
13102;SDS011;52970;46.752;17.108;2023-12-20T11:58:36;67.03;;;33.83;;
13102;SDS011;52970;46.752;17.108;2023-12-20T12:01:01;71.73;;;35.90;;
13102;SDS011;52970;46.752;17.108;2023-12-20T12:03:29;60.53;;;32.57;;
13102;SDS011;52970;46.752;17.108;2023-12-20T12:05:55;65.43;;;34.17;;
13102;SDS011;52970;46.752;17.108;2023-12-20T12:08:20;61.63;;;32.70;;
13102;SDS011;52970;46.752;17.108;2023-12-20T12:10:45;61.63;;;33.23;;
13102;SDS011;52970;46.752;17.108;2023-12-20T12:13:11;69.73;;;35.23;;
13102;SDS011;52970;46.752;17.108;2023-12-20T12:15:36;66.53;;;34.40;;
13102;SDS011;52970;46.752;17.108;2023-12-20T12:18:02;74.23;;;38.03;;
13102;SDS011;52970;46.752;17.108;2023-12-20T12:20:28;75.33;;;36.57;;
13102;SDS011;52970;46.752;17.108;2023-12-20T12:23:00;74.70;;;40.07;;
13102;SDS011;52970;46.752;17.108;2023-12-20T12:25:26;78.97;;;39.00;;
13102;SDS011;52970;46.752;17.108;2023-12-20T12:27:51;70.50;;;36.07;;
13102;SDS011;52970;46.752;17.108;2023-12-20T12:30:16;74.70;;;36.57;;
13102;SDS011;52970;46.752;17.108;2023-12-20T12:32:43;59.97;;;32.93;;
13102;SDS011;52970;46.752;17.108;2023-12-20T12:35:09;55.33;;;30.63;;
13102;SDS011;52970;46.752;17.108;2023-12-20T12:37:36;52.90;;;30.30;;
13102;SDS011;52970;46.752;17.108;2023-12-20T12:40:04;54.13;;;29.43;;
13102;SDS011;52970;46.752;17.108;2023-12-20T12:42:30;51.20;;;28.90;;
13102;SDS011;52970;46.752;17.108;2023-12-20T12:44:55;70.23;;;36.33;;
13102;SDS011;52970;46.752;17.108;2023-12-20T12:47:21;69.20;;;35.57;;
13102;SDS011;52970;46.752;17.108;2023-12-20T12:49:47;63.20;;;35.47;;
13102;SDS011;52970;46.752;17.108;2023-12-20T12:52:12;69.73;;;37.07;;
13102;SDS011;52970;46.752;17.108;2023-12-20T12:54:37;75.60;;;37.50;;
13102;SDS011;52970;46.752;17.108;2023-12-20T12:57:03;66.47;;;34.90;;
13102;SDS011;52970;46.752;17.108;2023-12-20T12:59:28;66.70;;;34.63;;
13102;SDS011;52970;46.752;17.108;2023-12-20T13:01:53;94.63;;;46.67;;
13102;SDS011;52970;46.752;17.108;2023-12-20T13:04:19;86.77;;;42.17;;
13102;SDS011;52970;46.752;17.108;2023-12-20T13:06:44;70.57;;;35.97;;
13102;SDS011;52970;46.752;17.108;2023-12-20T13:09:09;78.20;;;40.10;;
13102;SDS011;52970;46.752;17.108;2023-12-20T13:11:34;59.07;;;31.70;;
13102;SDS011;52970;46.752;17.108;2023-12-20T13:14:00;61.77;;;31.83;;
13102;SDS011;52970;46.752;17.108;2023-12-20T13:16:25;53.07;;;29.43;;
13102;SDS011;52970;46.752;17.108;2023-12-20T13:18:51;52.97;;;29.80;;
13102;SDS011;52970;46.752;17.108;2023-12-20T13:21:16;53.20;;;28.40;;
13102;SDS011;52970;46.752;17.108;2023-12-20T13:23:41;66.63;;;35.60;;
13102;SDS011;52970;46.752;17.108;2023-12-20T13:26:07;72.50;;;35.57;;
13102;SDS011;52970;46.752;17.108;2023-12-20T13:28:32;78.77;;;35.23;;
13102;SDS011;52970;46.752;17.108;2023-12-20T13:30:57;67.63;;;36.10;;
13102;SDS011;52970;46.752;17.108;2023-12-20T13:33:23;70.20;;;35.40;;
13102;SDS011;52970;46.752;17.108;2023-12-20T13:35:48;68.00;;;33.77;;
13102;SDS011;52970;46.752;17.108;2023-12-20T13:38:13;62.77;;;34.03;;
13102;SDS011;52970;46.752;17.108;2023-12-20T13:40:39;64.53;;;33.80;;
13102;SDS011;52970;46.752;17.108;2023-12-20T13:43:04;64.17;;;33.87;;
13102;SDS011;52970;46.752;17.108;2023-12-20T13:45:29;66.97;;;34.57;;
13102;SDS011;52970;46.752;17.108;2023-12-20T13:47:55;62.57;;;32.73;;
13102;SDS011;52970;46.752;17.108;2023-12-20T13:50:20;69.23;;;33.77;;
13102;SDS011;52970;46.752;17.108;2023-12-20T13:52:45;63.07;;;32.67;;
13102;SDS011;52970;46.752;17.108;2023-12-20T13:55:11;67.67;;;33.47;;
13102;SDS011;52970;46.752;17.108;2023-12-20T13:57:36;64.97;;;35.20;;
13102;SDS011;52970;46.752;17.108;2023-12-20T14:00:06;71.43;;;35.27;;
13102;SDS011;52970;46.752;17.108;2023-12-20T14:02:38;64.63;;;34.40;;
13102;SDS011;52970;46.752;17.108;2023-12-20T14:05:03;65.00;;;33.03;;
13102;SDS011;52970;46.752;17.108;2023-12-20T14:07:28;68.63;;;33.97;;